createdAt,value
2019-02-08T00:05:50.733Z,2.77
2019-02-08T00:08:20.826Z,2.77
2019-02-08T00:11:29.577Z,2.71
2019-02-08T00:14:12.000Z,2.68
2019-02-08T00:17:01.724Z,2.68
2019-02-08T00:19:44.223Z,2.46
2019-02-08T00:22:34.227Z,2.62
2019-02-08T00:25:24.594Z,2.59
2019-02-08T00:28:07.048Z,2.47
2019-02-08T00:30:58.242Z,2.15
2019-02-08T00:33:41.103Z,2.15
2019-02-08T00:36:30.822Z,2.02
2019-02-08T00:42:12.687Z,2.09
2019-02-08T00:48:08.235Z,2.17
2019-02-08T00:50:55.485Z,2.13
2019-02-08T00:53:38.711Z,2.08
2019-02-08T00:56:28.547Z,2.18
2019-02-08T00:59:18.402Z,2.23
2019-02-08T01:02:08.957Z,2.17
2019-02-08T01:04:52.869Z,2.15
2019-02-08T01:07:42.688Z,2.03
2019-02-08T01:10:32.646Z,2.07
2019-02-08T01:13:18.126Z,2.01
2019-02-08T01:16:01.550Z,1.98
2019-02-08T01:18:51.328Z,1.92
2019-02-08T01:21:41.188Z,1.95
2019-02-08T01:24:30.922Z,1.82
2019-02-08T01:27:13.386Z,1.97
2019-02-08T01:30:03.275Z,1.98
2019-02-08T01:32:53.038Z,1.97
2019-02-08T01:35:42.804Z,1.98
2019-02-08T01:38:32.579Z,1.95
2019-02-08T01:41:22.387Z,1.90
2019-02-08T01:44:12.108Z,1.81
2019-02-08T01:47:20.662Z,1.83
2019-02-08T01:50:03.007Z,1.81
2019-02-08T01:52:52.820Z,1.82
2019-02-08T01:55:42.525Z,1.67
2019-02-08T01:58:32.268Z,1.64
2019-02-08T02:01:14.229Z,1.59
2019-02-08T02:04:04.066Z,1.55
2019-02-08T02:09:57.500Z,1.64
2019-02-08T02:12:39.625Z,1.61
2019-02-08T02:15:29.436Z,1.60
2019-02-08T02:18:19.170Z,1.58
2019-02-08T02:21:09.014Z,1.58
2019-02-08T02:23:58.802Z,1.47
2019-02-08T02:29:45.231Z,1.57
2019-02-08T02:32:34.954Z,1.63
2019-02-08T02:35:18.939Z,1.60
2019-02-08T02:38:08.852Z,1.59
2019-02-08T02:40:50.879Z,1.66
2019-02-08T02:43:40.592Z,1.63
2019-02-08T02:46:22.797Z,1.50
2019-02-08T02:49:12.496Z,1.38
2019-02-08T02:51:55.294Z,1.27
2019-02-08T02:54:45.064Z,1.04
2019-02-08T02:57:27.395Z,1.23
2019-02-08T03:00:29.531Z,1.22
2019-02-08T03:03:12.879Z,1.06
2019-02-08T03:06:02.575Z,1.35
2019-02-08T03:08:45.277Z,1.24
2019-02-08T03:11:35.398Z,1.52
2019-02-08T03:14:17.474Z,1.73
2019-02-08T03:17:07.207Z,1.77
2019-02-08T03:19:56.937Z,1.77
2019-02-08T03:22:46.824Z,1.89
2019-02-08T03:25:37.208Z,1.85
2019-02-08T03:28:27.006Z,1.84
2019-02-08T03:31:16.812Z,1.77
2019-02-08T03:34:06.607Z,1.87
2019-02-08T03:36:56.385Z,1.89
2019-02-08T03:39:46.270Z,1.46
2019-02-08T03:42:36.031Z,1.34
2019-02-08T03:48:20.183Z,1.50
2019-02-08T03:51:10.000Z,1.51
2019-02-08T03:53:59.816Z,1.31
2019-02-08T03:56:49.639Z,1.55
2019-02-08T03:59:39.422Z,1.46
2019-02-08T04:02:29.279Z,1.32
2019-02-08T04:05:19.143Z,1.34
2019-02-08T04:08:08.989Z,1.49
2019-02-08T04:10:58.807Z,1.47
2019-02-08T04:13:48.579Z,1.59
2019-02-08T04:16:38.516Z,1.62
2019-02-08T04:19:28.267Z,1.64
2019-02-08T04:22:18.064Z,1.50
2019-02-08T04:25:08.607Z,1.55
2019-02-08T04:27:58.487Z,1.56
2019-02-08T04:30:48.262Z,1.48
2019-02-08T04:36:46.101Z,1.51
2019-02-08T04:39:29.005Z,1.55
2019-02-08T04:42:18.778Z,1.52
2019-02-08T04:45:09.385Z,1.50
2019-02-08T04:47:59.218Z,1.46
2019-02-08T04:50:49.017Z,1.39
2019-02-08T04:53:38.801Z,1.31
2019-02-08T04:56:28.702Z,1.17
2019-02-08T04:59:18.472Z,1.41
2019-02-08T05:02:08.263Z,1.40
2019-02-08T05:04:58.053Z,1.48
2019-02-08T05:07:47.922Z,1.40
2019-02-08T05:10:37.674Z,1.50
2019-02-08T05:13:27.463Z,1.43
2019-02-08T05:16:10.066Z,1.37
2019-02-08T05:18:59.810Z,1.39
2019-02-08T05:22:08.363Z,1.34
2019-02-08T05:24:58.081Z,1.30
2019-02-08T05:27:44.361Z,1.33
2019-02-08T05:30:35.240Z,1.36
2019-02-08T05:33:18.105Z,1.19
2019-02-08T05:39:10.002Z,1.20
2019-02-08T05:41:59.698Z,1.08
2019-02-08T05:44:41.859Z,0.96
2019-02-08T05:47:31.528Z,1.23
2019-02-08T05:50:15.298Z,1.08
2019-02-08T05:55:59.973Z,0.79
2019-02-08T05:58:49.754Z,0.85
2019-02-08T06:01:39.640Z,0.54
2019-02-08T06:04:29.706Z,0.75
2019-02-08T06:07:19.424Z,0.63
2019-02-08T06:10:02.454Z,0.64
2019-02-08T06:12:52.310Z,0.65
2019-02-08T06:15:42.329Z,0.62
2019-02-08T06:18:32.018Z,0.78
2019-02-08T06:21:14.244Z,0.64
2019-02-08T06:24:04.022Z,0.86
2019-02-08T06:26:46.448Z,0.91
2019-02-08T06:29:36.647Z,0.81
2019-02-08T06:32:26.386Z,1.03
2019-02-08T06:35:49.145Z,1.04
2019-02-08T06:38:32.703Z,1.10
2019-02-08T06:41:22.564Z,1.15
2019-02-08T06:44:12.332Z,1.19
2019-02-08T06:47:02.026Z,1.27
2019-02-08T06:49:48.558Z,1.23
2019-02-08T06:52:30.690Z,1.40
2019-02-08T06:55:20.500Z,1.35
2019-02-08T06:58:22.338Z,1.41
2019-02-08T07:01:30.931Z,1.46
2019-02-08T07:04:39.582Z,1.34
2019-02-08T07:07:48.193Z,1.23
2019-02-08T07:10:56.898Z,1.61
2019-02-08T07:14:13.387Z,1.72
2019-02-08T07:17:11.245Z,1.77
2019-02-08T07:20:19.868Z,1.79
2019-02-08T07:23:28.480Z,1.83
2019-02-08T07:26:37.132Z,1.94
2019-02-08T07:33:03.138Z,2.04
2019-02-08T07:36:04.616Z,2.03
2019-02-08T07:42:15.914Z,2.16
2019-02-08T07:45:06.221Z,2.24
2019-02-08T07:48:14.796Z,2.19
2019-02-08T07:51:23.417Z,2.22
2019-02-08T07:54:24.270Z,2.19
2019-02-08T07:57:32.841Z,1.96
2019-02-08T08:04:01.493Z,2.08
2019-02-08T08:07:08.665Z,2.11
2019-02-08T08:10:13.099Z,2.20
2019-02-08T08:13:21.657Z,2.19
2019-02-08T08:16:26.077Z,1.95
2019-02-08T08:19:55.239Z,2.07
2019-02-08T08:22:56.189Z,2.03
2019-02-08T08:26:25.460Z,2.28
2019-02-08T08:29:28.121Z,2.19
2019-02-08T08:35:53.833Z,2.36
2019-02-08T08:39:21.745Z,2.42
2019-02-08T08:42:24.311Z,2.39
2019-02-08T08:45:52.233Z,2.46
2019-02-08T08:49:20.199Z,2.51
2019-02-08T08:52:48.255Z,2.45
2019-02-08T08:56:16.175Z,2.71
2019-02-08T08:59:32.380Z,2.80
2019-02-08T09:03:00.358Z,2.94
2019-02-08T09:06:13.949Z,2.79
2019-02-08T09:09:16.082Z,3.10
2019-02-08T09:12:02.788Z,3.24
2019-02-08T09:15:17.140Z,3.38
2019-02-08T09:18:19.891Z,3.46
2019-02-08T09:21:47.769Z,3.56
2019-02-08T09:24:38.888Z,3.84
2019-02-08T09:28:06.759Z,4.03
2019-02-08T09:31:08.784Z,4.18
2019-02-08T09:34:36.772Z,4.38
2019-02-08T09:37:38.227Z,4.37
2019-02-08T09:41:06.056Z,4.66
2019-02-08T09:44:09.492Z,4.75
2019-02-08T09:47:37.318Z,4.81
2019-02-08T09:50:39.888Z,4.85
2019-02-08T09:54:07.788Z,4.97
2019-02-08T09:57:12.531Z,5.08
2019-02-08T10:00:40.416Z,5.18
2019-02-08T10:03:42.122Z,5.34
2019-02-08T10:07:10.046Z,5.49
2019-02-08T10:10:14.084Z,5.63
2019-02-08T10:13:41.920Z,5.71
2019-02-08T10:16:54.618Z,5.81
2019-02-08T10:23:26.273Z,6.12
2019-02-08T10:30:27.084Z,6.26
2019-02-08T10:33:34.602Z,6.33
2019-02-08T10:37:02.432Z,6.42
2019-02-08T10:40:03.534Z,6.44
2019-02-08T10:43:31.388Z,6.47
2019-02-08T10:46:32.462Z,6.38
2019-02-08T10:50:00.527Z,6.49
2019-02-08T10:53:01.917Z,6.52
2019-02-08T10:56:29.756Z,6.77
2019-02-08T10:59:31.071Z,6.76
2019-02-08T11:02:58.918Z,6.89
2019-02-08T11:06:00.384Z,7.00
2019-02-08T11:09:28.253Z,7.21
2019-02-08T11:12:29.596Z,7.34
2019-02-08T11:15:57.420Z,7.45
2019-02-08T11:19:25.460Z,7.53
2019-02-08T11:22:09.086Z,7.55
2019-02-08T11:24:51.754Z,7.67
2019-02-08T11:27:41.488Z,7.65
2019-02-08T11:30:23.622Z,7.69
2019-02-08T11:33:13.406Z,7.85
2019-02-08T11:36:03.209Z,7.93
2019-02-08T11:38:53.060Z,8.07
2019-02-08T11:41:43.094Z,8.10
2019-02-08T11:44:26.361Z,8.23
2019-02-08T11:47:16.133Z,8.17
2019-02-08T11:53:20.464Z,8.63
2019-02-08T11:55:51.123Z,8.47
2019-02-08T11:58:40.941Z,8.57
2019-02-08T12:07:40.754Z,8.83
2019-02-08T12:10:30.473Z,8.93
2019-02-08T12:13:13.267Z,9.01
2019-02-08T12:19:04.967Z,8.98
2019-02-08T12:21:56.075Z,9.15
2019-02-08T12:24:39.123Z,9.13
2019-02-08T12:27:28.811Z,9.31
2019-02-08T12:30:14.043Z,9.09
2019-02-08T12:33:03.869Z,9.18
2019-02-08T12:35:46.123Z,9.27
2019-02-08T12:38:35.779Z,9.42
2019-02-08T12:41:18.060Z,9.45
2019-02-08T12:44:08.321Z,9.31
2019-02-08T12:46:50.954Z,9.37
2019-02-08T12:49:40.727Z,9.29
2019-02-08T12:52:23.641Z,9.37
2019-02-08T12:55:13.355Z,9.14
2019-02-08T12:57:55.554Z,8.93
2019-02-08T13:03:40.143Z,8.84
2019-02-08T13:06:29.908Z,8.75
2019-02-08T13:09:19.636Z,8.63
2019-02-08T13:12:03.663Z,8.64
2019-02-08T13:14:46.024Z,8.51
2019-02-08T13:17:35.735Z,8.83
2019-02-08T13:20:44.600Z,8.76
2019-02-08T13:26:27.545Z,8.77
2019-02-08T13:29:17.242Z,8.88
2019-02-08T13:32:25.790Z,8.86
2019-02-08T13:35:08.982Z,9.01
2019-02-08T13:38:11.156Z,8.72
2019-02-08T13:40:53.502Z,8.88
2019-02-08T13:43:43.223Z,8.95
2019-02-08T13:46:25.671Z,9.04
2019-02-08T13:49:15.537Z,9.07
2019-02-08T13:51:58.396Z,9.01
2019-02-08T13:54:48.125Z,8.96
2019-02-08T13:57:30.909Z,9.02
2019-02-08T14:03:38.865Z,8.78
2019-02-08T14:06:28.678Z,8.94
2019-02-08T14:09:18.518Z,9.03
2019-02-08T14:12:08.508Z,9.01
2019-02-08T14:18:01.538Z,8.77
2019-02-08T14:20:43.888Z,8.60
2019-02-08T14:23:52.428Z,8.63
2019-02-08T14:26:36.620Z,8.52
2019-02-08T14:29:19.420Z,8.26
2019-02-08T14:32:09.212Z,8.41
2019-02-08T14:34:52.156Z,8.36
2019-02-08T14:37:41.870Z,8.25
2019-02-08T14:40:24.710Z,8.16
2019-02-08T14:43:14.452Z,8.06
2019-02-08T14:45:56.884Z,8.05
2019-02-08T14:51:47.692Z,8.09
2019-02-08T14:54:37.440Z,7.85
2019-02-08T14:57:20.455Z,8.07
2019-02-08T15:00:13.499Z,8.04
2019-02-08T15:02:55.498Z,8.02
2019-02-08T15:05:45.181Z,7.93
2019-02-08T15:08:27.543Z,7.93
2019-02-08T15:11:17.275Z,7.80
2019-02-08T15:16:34.587Z,7.88
2019-02-08T15:19:24.357Z,7.76
2019-02-08T15:22:14.228Z,7.85
2019-02-08T15:25:04.165Z,7.69
2019-02-08T15:28:13.129Z,7.74
2019-02-08T15:31:02.872Z,7.86
2019-02-08T15:33:52.639Z,7.73
2019-02-08T15:36:49.184Z,7.72
2019-02-08T15:39:26.948Z,7.61
2019-02-08T15:42:16.835Z,7.43
2019-02-08T15:48:21.573Z,7.43
2019-02-08T15:51:11.297Z,7.37
2019-02-08T15:54:01.167Z,7.35
2019-02-08T15:56:50.966Z,7.24
2019-02-08T15:59:40.701Z,7.22
2019-02-08T16:02:30.409Z,7.09
2019-02-08T16:05:13.609Z,6.92
2019-02-08T16:08:03.317Z,6.99
2019-02-08T16:10:45.679Z,6.87
2019-02-08T16:13:35.419Z,6.99
2019-02-08T16:16:19.003Z,6.65
2019-02-08T16:19:08.781Z,6.78
2019-02-08T16:21:50.756Z,6.68
2019-02-08T16:24:40.673Z,6.55
2019-02-08T16:27:30.475Z,6.42
2019-02-08T16:30:22.575Z,6.28
2019-02-08T16:36:16.003Z,5.95
2019-02-08T16:38:58.901Z,5.91
2019-02-08T16:41:48.705Z,5.94
2019-02-08T16:44:38.514Z,5.91
2019-02-08T16:47:28.294Z,5.85
2019-02-08T16:50:20.285Z,5.82
2019-02-08T16:53:10.138Z,5.81
2019-02-08T16:55:59.848Z,5.74
2019-02-08T16:58:49.546Z,5.54
2019-02-08T17:01:31.909Z,5.62
2019-02-08T17:04:21.743Z,5.56
2019-02-08T17:07:05.635Z,5.43
2019-02-08T17:12:56.229Z,5.52
2019-02-08T17:15:45.948Z,5.43
2019-02-08T17:18:29.601Z,5.15
2019-02-08T17:21:19.428Z,5.19
2019-02-08T17:24:02.303Z,5.19
2019-02-08T17:26:51.995Z,5.08
2019-02-08T17:29:34.519Z,4.91
2019-02-08T17:32:24.270Z,4.72
2019-02-08T17:35:11.283Z,4.74
2019-02-08T17:38:01.045Z,4.72
2019-02-08T17:40:44.051Z,4.76
2019-02-08T17:46:34.828Z,4.53
2019-02-08T17:49:24.607Z,4.26
2019-02-08T17:52:06.662Z,4.40
2019-02-08T17:57:51.810Z,4.46
2019-02-08T18:01:01.773Z,4.48
2019-02-08T18:03:51.456Z,4.47
2019-02-08T18:06:34.244Z,4.39
2019-02-08T18:09:24.078Z,4.27
2019-02-08T18:12:13.854Z,4.03
2019-02-08T18:15:03.870Z,3.89
2019-02-08T18:18:05.594Z,3.91
2019-02-08T18:20:48.518Z,3.86
2019-02-08T18:23:38.336Z,4.02
2019-02-08T18:26:28.104Z,3.98
2019-02-08T18:29:17.825Z,3.71
2019-02-08T18:32:07.773Z,3.71
2019-02-08T18:34:57.567Z,3.62
2019-02-08T18:37:47.350Z,3.55
2019-02-08T18:43:40.766Z,3.52
2019-02-08T18:46:23.748Z,3.45
2019-02-08T18:49:13.591Z,3.17
2019-02-08T18:52:03.354Z,3.28
2019-02-08T18:54:53.185Z,3.32
2019-02-08T18:57:42.980Z,3.19
2019-02-08T19:00:40.033Z,2.95
2019-02-08T19:03:24.219Z,3.22
2019-02-08T19:06:14.041Z,3.29
2019-02-08T19:09:22.880Z,3.25
2019-02-08T19:12:06.764Z,3.13
2019-02-08T19:14:56.608Z,3.06
2019-02-08T19:17:39.321Z,3.02
2019-02-08T19:20:29.142Z,3.00
2019-02-08T19:23:18.922Z,2.75
2019-02-08T19:26:08.633Z,2.82
2019-02-08T19:28:58.356Z,2.91
2019-02-08T19:31:48.093Z,2.85
2019-02-08T19:34:30.094Z,2.73
2019-02-08T19:37:19.809Z,2.96
2019-02-08T19:40:06.565Z,2.98
2019-02-08T19:42:56.302Z,2.80
2019-02-08T19:45:39.161Z,2.94
2019-02-08T19:48:28.910Z,2.74
2019-02-08T19:51:12.795Z,2.89
2019-02-08T19:54:02.458Z,2.72
2019-02-08T19:56:45.038Z,2.90
2019-02-08T19:59:34.841Z,2.94
2019-02-08T20:02:16.821Z,2.92
2019-02-08T20:08:24.297Z,3.08
2019-02-08T20:11:14.262Z,3.19
2019-02-08T20:14:04.249Z,3.20
2019-02-08T20:16:54.027Z,3.24
2019-02-08T20:20:02.913Z,3.30
2019-02-08T20:22:52.688Z,3.35
2019-02-08T20:25:42.470Z,3.16
2019-02-08T20:28:32.275Z,3.34
2019-02-08T20:31:22.126Z,3.37
2019-02-08T20:34:11.877Z,3.36
2019-02-08T20:36:54.729Z,3.34
2019-02-08T20:39:44.563Z,3.30
2019-02-08T20:42:34.323Z,3.28
2019-02-08T20:45:43.080Z,3.22
2019-02-08T20:48:25.393Z,3.18
2019-02-08T20:51:15.294Z,3.20
2019-02-08T20:54:05.109Z,3.23
2019-02-08T20:56:58.990Z,3.19
2019-02-08T20:59:39.189Z,2.90
2019-02-08T21:02:28.998Z,3.11
2019-02-08T21:05:18.891Z,3.07
2019-02-08T21:11:22.879Z,2.72
2019-02-08T21:14:12.709Z,2.99
2019-02-08T21:17:02.499Z,2.94
2019-02-08T21:20:11.362Z,2.97
2019-02-08T21:23:01.105Z,2.76
2019-02-08T21:25:50.364Z,2.92
2019-02-08T21:28:35.345Z,2.94
2019-02-08T21:31:25.142Z,2.93
2019-02-08T21:34:14.983Z,2.75
2019-02-08T21:37:04.723Z,2.93
2019-02-08T21:39:54.520Z,2.97
2019-02-08T21:42:44.384Z,2.94
2019-02-08T21:45:35.043Z,2.99
2019-02-08T21:48:24.890Z,3.00
2019-02-08T21:51:14.662Z,3.00
2019-02-08T21:54:23.572Z,3.08
2019-02-08T21:57:13.398Z,3.11
2019-02-08T22:00:03.258Z,2.94
2019-02-08T22:02:53.473Z,3.05
2019-02-08T22:05:58.306Z,3.04
2019-02-08T22:08:48.316Z,2.98
2019-02-08T22:11:32.494Z,2.99
2019-02-08T22:14:35.006Z,2.75
2019-02-08T22:17:17.651Z,2.95
2019-02-08T22:20:09.260Z,2.95
2019-02-08T22:22:51.185Z,2.87
2019-02-08T22:25:40.968Z,2.92
2019-02-08T22:28:23.919Z,2.94
2019-02-08T22:31:13.688Z,2.73
2019-02-08T22:33:55.620Z,2.68
2019-02-08T22:36:45.351Z,2.56
2019-02-08T22:39:28.199Z,2.76
2019-02-08T22:42:17.946Z,2.67
2019-02-08T22:45:08.601Z,2.77
2019-02-08T22:47:53.860Z,2.71
2019-02-08T22:50:43.738Z,2.70
2019-02-08T22:53:33.513Z,2.67
2019-02-08T22:56:23.280Z,2.60
2019-02-08T23:02:09.498Z,2.40
2019-02-08T23:04:59.204Z,2.55
2019-02-08T23:07:41.474Z,2.52
2019-02-08T23:10:31.206Z,2.41
2019-02-08T23:13:14.932Z,2.39
2019-02-08T23:16:25.170Z,2.25
2019-02-08T23:19:07.158Z,2.26
2019-02-08T23:21:56.942Z,2.22
2019-02-08T23:24:39.142Z,2.19
2019-02-08T23:27:28.950Z,2.19
2019-02-08T23:30:11.617Z,2.26
2019-02-08T23:33:20.221Z,2.28
2019-02-08T23:39:04.428Z,2.26
2019-02-08T23:41:54.303Z,2.33
2019-02-08T23:44:44.108Z,2.31
2019-02-08T23:47:33.872Z,2.17
2019-02-08T23:50:24.084Z,2.38
2019-02-08T23:53:13.788Z,2.28
2019-02-08T23:55:55.884Z,2.46
2019-02-08T23:58:45.673Z,2.52
